createdAt,value
2022-12-19T00:01:49.076Z,10.80
2022-12-19T00:04:19.977Z,12.93
2022-12-19T00:06:47.421Z,9.95
2022-12-19T00:14:11.786Z,10.52
2022-12-19T00:16:39.404Z,11.27
2022-12-19T00:19:07.356Z,19.70
2022-12-19T00:21:35.650Z,11.88
2022-12-19T00:24:08.670Z,11.57
2022-12-19T00:26:49.305Z,9.77
2022-12-19T00:29:17.283Z,10.68
2022-12-19T00:31:45.084Z,12.20
2022-12-19T00:34:15.845Z,9.57
2022-12-19T00:36:43.367Z,14.02
2022-12-19T00:39:11.864Z,10.07
2022-12-19T00:41:41.799Z,11.50
2022-12-19T00:44:13.860Z,11.32
2022-12-19T00:46:41.880Z,10.30
2022-12-19T00:49:09.261Z,8.45
2022-12-19T00:54:09.863Z,10.65
2022-12-19T00:56:38.435Z,11.32
2022-12-19T00:59:10.750Z,10.32
2022-12-19T01:01:41.532Z,10.55
2022-12-19T01:04:30.689Z,11.38
2022-12-19T01:07:01.857Z,10.35
2022-12-19T01:09:35.335Z,13.10
2022-12-19T01:12:24.635Z,12.20
2022-12-19T01:15:03.779Z,11.88
2022-12-19T01:17:44.417Z,12.68
2022-12-19T01:20:15.880Z,9.50
2022-12-19T01:22:44.487Z,10.95
2022-12-19T01:25:14.563Z,10.98
2022-12-19T01:27:42.391Z,12.07
2022-12-19T01:30:10.806Z,12.00
2022-12-19T01:32:39.175Z,10.02
2022-12-19T01:35:06.843Z,11.27
2022-12-19T01:37:38.568Z,13.88
2022-12-19T01:40:06.782Z,13.25
2022-12-19T01:42:36.749Z,11.63
2022-12-19T01:45:05.322Z,7.78
2022-12-19T01:47:41.293Z,11.38
2022-12-19T01:50:14.097Z,10.73
2022-12-19T01:52:42.700Z,10.93
2022-12-19T01:55:11.396Z,12.55
2022-12-19T01:57:39.278Z,14.27
2022-12-19T02:00:10.028Z,8.88
2022-12-19T02:02:57.197Z,15.18
2022-12-19T02:05:25.061Z,9.40
2022-12-19T02:07:54.322Z,12.63
2022-12-19T02:10:22.004Z,11.95
2022-12-19T02:12:50.104Z,14.45
2022-12-19T02:15:18.379Z,11.10
2022-12-19T02:18:07.944Z,14.25
2022-12-19T02:20:54.271Z,13.40
2022-12-19T02:24:09.354Z,12.80
2022-12-19T02:27:11.815Z,13.05
2022-12-19T02:30:05.628Z,10.90
2022-12-19T02:33:03.565Z,12.20
2022-12-19T02:35:37.827Z,7.27
2022-12-19T02:38:16.757Z,12.20
2022-12-19T02:41:15.673Z,12.85
2022-12-19T02:43:53.020Z,10.82
2022-12-19T02:46:28.626Z,10.13
2022-12-19T02:48:57.211Z,13.48
2022-12-19T02:51:24.824Z,12.38
2022-12-19T02:53:52.364Z,12.80
2022-12-19T02:56:43.951Z,11.93
2022-12-19T02:59:53.408Z,15.63
2022-12-19T03:02:33.330Z,9.82
2022-12-19T03:05:12.862Z,13.48
2022-12-19T03:07:46.287Z,9.23
2022-12-19T03:10:29.453Z,14.27
2022-12-19T03:13:04.024Z,8.32
2022-12-19T03:15:32.476Z,8.88
2022-12-19T03:18:01.741Z,12.18
2022-12-19T03:20:39.806Z,10.50
2022-12-19T03:23:07.436Z,12.13
2022-12-19T03:25:35.870Z,8.82
2022-12-19T03:28:09.155Z,10.82
2022-12-19T03:30:39.874Z,11.25
2022-12-19T03:33:10.173Z,9.95
2022-12-19T03:35:39.984Z,10.50
2022-12-19T03:38:10.230Z,13.13
2022-12-19T03:40:42.890Z,13.10
2022-12-19T03:43:12.727Z,10.98
2022-12-19T03:45:44.812Z,11.05
2022-12-19T03:48:27.880Z,11.50
2022-12-19T03:51:01.418Z,10.90
2022-12-19T03:53:35.113Z,8.80
2022-12-19T03:56:16.596Z,12.18
2022-12-19T03:58:51.959Z,11.25
2022-12-19T04:01:21.691Z,8.65
2022-12-19T04:03:50.999Z,11.45
2022-12-19T04:06:18.978Z,10.48
2022-12-19T04:08:47.273Z,12.98
2022-12-19T04:11:20.124Z,14.90
2022-12-19T04:13:58.015Z,10.48
2022-12-19T04:16:39.355Z,9.30
2022-12-19T04:19:22.194Z,11.40
2022-12-19T04:22:00.355Z,8.82
2022-12-19T04:24:33.319Z,9.73
2022-12-19T04:27:03.708Z,10.73
2022-12-19T04:29:34.347Z,15.05
2022-12-19T04:32:04.351Z,12.07
2022-12-19T04:34:32.051Z,9.88
2022-12-19T04:37:02.541Z,8.65
2022-12-19T04:39:30.109Z,14.05
2022-12-19T04:41:57.567Z,15.57
2022-12-19T04:46:52.326Z,14.70
2022-12-19T04:51:47.096Z,13.88
2022-12-19T04:56:41.997Z,8.48
2022-12-19T04:59:10.104Z,12.18
2022-12-19T05:01:37.912Z,10.02
2022-12-19T05:04:05.450Z,9.85
2022-12-19T05:06:33.037Z,11.15
2022-12-19T05:09:00.756Z,9.32
2022-12-19T05:11:28.358Z,10.05
2022-12-19T05:13:55.696Z,9.25
2022-12-19T05:21:17.627Z,8.27
2022-12-19T05:28:39.883Z,10.07
2022-12-19T05:31:11.046Z,13.98
2022-12-19T05:33:39.597Z,9.23
2022-12-19T05:36:08.576Z,8.60
2022-12-19T05:38:36.646Z,8.32
2022-12-19T05:41:09.167Z,7.97
2022-12-19T05:43:37.267Z,10.55
2022-12-19T05:46:05.853Z,12.98
2022-12-19T05:48:33.526Z,11.75
2022-12-19T05:51:01.172Z,9.52
2022-12-19T05:53:28.922Z,8.82
2022-12-19T05:56:04.590Z,11.43
2022-12-19T05:58:32.361Z,11.68
2022-12-19T06:01:09.887Z,7.07
2022-12-19T06:03:37.905Z,11.32
2022-12-19T06:06:08.991Z,11.98
2022-12-19T06:08:36.494Z,9.32
2022-12-19T06:13:32.996Z,9.50
2022-12-19T06:16:06.752Z,7.28
2022-12-19T06:18:35.056Z,7.65
2022-12-19T06:21:05.301Z,9.50
2022-12-19T06:23:36.528Z,10.00
2022-12-19T06:26:06.684Z,8.98
2022-12-19T06:28:34.651Z,9.32
2022-12-19T06:31:05.333Z,9.70
2022-12-19T06:33:35.277Z,14.35
2022-12-19T06:36:16.500Z,8.00
2022-12-19T06:38:44.072Z,10.00
2022-12-19T06:41:30.564Z,13.13
2022-12-19T06:43:59.431Z,8.77
2022-12-19T06:46:27.142Z,13.65
2022-12-19T06:48:54.610Z,15.73
2022-12-19T06:53:50.363Z,7.38
2022-12-19T06:56:19.148Z,11.38
2022-12-19T06:58:46.898Z,9.43
2022-12-19T07:01:31.059Z,7.93
2022-12-19T07:03:59.354Z,12.02
2022-12-19T07:06:26.798Z,11.25
2022-12-19T07:08:54.359Z,10.60
2022-12-19T07:11:21.759Z,11.57
2022-12-19T07:16:16.639Z,14.88
2022-12-19T07:18:44.726Z,11.20
2022-12-19T07:21:12.346Z,9.80
2022-12-19T07:23:40.709Z,11.60
2022-12-19T07:26:08.480Z,11.85
2022-12-19T07:28:37.920Z,12.63
2022-12-19T07:31:05.548Z,11.88
2022-12-19T07:33:33.782Z,8.50
2022-12-19T07:36:02.443Z,14.27
2022-12-19T07:41:01.279Z,12.77
2022-12-19T07:43:28.938Z,8.90
2022-12-19T07:45:56.792Z,8.68
2022-12-19T07:48:24.532Z,14.25
2022-12-19T07:50:51.959Z,15.30
2022-12-19T07:53:19.391Z,14.30
2022-12-19T07:58:17.868Z,13.05
2022-12-19T08:00:45.468Z,12.50
2022-12-19T08:03:12.994Z,10.35
2022-12-19T08:08:08.975Z,14.95
2022-12-19T08:10:36.832Z,13.10
2022-12-19T08:13:04.289Z,13.55
2022-12-19T08:17:59.257Z,12.10
2022-12-19T08:20:26.741Z,16.63
2022-12-19T08:22:54.296Z,10.80
2022-12-19T08:25:22.174Z,11.13
2022-12-19T08:27:49.743Z,9.07
2022-12-19T08:32:45.350Z,13.35
2022-12-19T08:35:13.040Z,16.40
2022-12-19T08:37:40.505Z,10.27
2022-12-19T08:42:35.827Z,15.32
2022-12-19T08:45:04.731Z,11.00
2022-12-19T08:47:32.208Z,13.07
2022-12-19T08:52:27.427Z,14.75
2022-12-19T08:54:54.992Z,12.98
2022-12-19T08:57:22.583Z,10.85
2022-12-19T08:59:50.077Z,10.98
2022-12-19T09:02:19.046Z,11.85
2022-12-19T09:06:02.217Z,11.63
2022-12-19T09:07:38.532Z,13.40
2022-12-19T09:10:08.041Z,14.77
2022-12-19T09:12:35.525Z,17.88
2022-12-19T09:15:03.194Z,9.85
2022-12-19T09:17:30.713Z,13.13
2022-12-19T09:19:58.719Z,13.27
2022-12-19T09:22:29.295Z,15.82
2022-12-19T09:24:57.379Z,16.08
2022-12-19T09:27:24.830Z,15.25
2022-12-19T09:29:52.429Z,14.63
2022-12-19T09:32:19.785Z,13.15
2022-12-19T09:37:17.717Z,14.95
2022-12-19T09:39:46.901Z,19.23
2022-12-19T09:42:40.477Z,18.30
2022-12-19T09:45:31.939Z,11.65
2022-12-19T09:48:01.617Z,14.82
2022-12-19T09:50:44.200Z,12.15
2022-12-19T09:53:35.087Z,15.68
2022-12-19T09:56:02.986Z,14.85
2022-12-19T09:58:30.356Z,10.82
2022-12-19T10:03:40.238Z,11.20
2022-12-19T10:07:08.710Z,15.68
2022-12-19T10:10:45.288Z,10.70
2022-12-19T10:12:51.066Z,9.40
2022-12-19T10:15:47.264Z,13.70
2022-12-19T10:18:56.422Z,16.92
2022-12-19T10:22:16.466Z,13.80
2022-12-19T10:25:08.070Z,12.77
2022-12-19T10:27:58.771Z,13.82
2022-12-19T10:30:32.471Z,19.75
2022-12-19T10:33:02.603Z,11.05
2022-12-19T10:35:43.378Z,11.40
2022-12-19T10:38:19.786Z,12.45
2022-12-19T10:40:53.878Z,12.15
2022-12-19T10:43:40.790Z,15.65
2022-12-19T10:46:42.793Z,16.65
2022-12-19T10:49:14.624Z,16.23
2022-12-19T10:51:42.836Z,16.50
2022-12-19T10:54:10.399Z,12.50
2022-12-19T10:56:38.276Z,15.77
2022-12-19T10:59:19.938Z,12.07
2022-12-19T11:01:51.716Z,17.50
2022-12-19T11:04:33.354Z,16.33
2022-12-19T11:07:02.471Z,21.13
2022-12-19T11:09:35.916Z,21.33
2022-12-19T11:16:14.620Z,17.00
2022-12-19T11:20:36.685Z,14.80
2022-12-19T11:27:14.279Z,17.63
2022-12-19T11:29:42.672Z,17.10
2022-12-19T11:30:36.948Z,16.30
2022-12-19T11:30:58.886Z,14.13
2022-12-19T11:32:45.026Z,14.80
2022-12-19T11:35:24.902Z,18.35
2022-12-19T11:37:58.533Z,20.33
2022-12-19T11:40:59.256Z,14.65
2022-12-19T11:43:59.138Z,15.98
2022-12-19T11:47:09.079Z,17.23
2022-12-19T11:49:42.466Z,17.10
2022-12-19T11:53:02.818Z,16.35
2022-12-19T11:55:42.290Z,17.17
2022-12-19T11:58:11.720Z,16.23
2022-12-19T12:01:02.137Z,16.02
2022-12-19T12:04:01.942Z,14.32
2022-12-19T12:06:34.623Z,18.23
2022-12-19T12:11:41.480Z,16.67
2022-12-19T12:18:41.624Z,17.58
2022-12-19T12:27:48.181Z,16.85
2022-12-19T12:30:39.058Z,18.70
2022-12-19T12:31:08.849Z,17.30
2022-12-19T12:31:44.254Z,20.13
2022-12-19T12:31:47.725Z,21.05
2022-12-19T12:35:32.948Z,20.70
2022-12-19T12:38:24.670Z,17.30
2022-12-19T12:41:43.604Z,17.05
2022-12-19T12:44:12.526Z,15.13
2022-12-19T12:46:46.564Z,16.83
2022-12-19T12:49:38.235Z,16.45
2022-12-19T12:52:09.318Z,15.20
2022-12-19T12:54:41.822Z,19.63
2022-12-19T12:57:19.734Z,15.40
2022-12-19T12:59:48.419Z,20.33
2022-12-19T13:02:24.849Z,14.65
2022-12-19T13:04:59.785Z,15.75
2022-12-19T13:07:41.715Z,18.45
2022-12-19T13:10:19.123Z,15.75
2022-12-19T13:13:01.549Z,14.82
2022-12-19T13:15:37.567Z,20.25
2022-12-19T13:18:30.083Z,19.40
2022-12-19T13:20:59.195Z,16.73
2022-12-19T13:23:26.564Z,18.67
2022-12-19T13:28:22.140Z,11.57
2022-12-19T13:31:21.472Z,14.10
2022-12-19T13:33:55.664Z,11.77
2022-12-19T13:40:01.457Z,19.05
2022-12-19T13:40:11.971Z,20.27
2022-12-19T13:43:26.116Z,17.85
2022-12-19T13:45:59.370Z,13.25
2022-12-19T13:48:37.563Z,15.13
2022-12-19T13:51:08.421Z,15.85
2022-12-19T13:53:37.150Z,18.25
2022-12-19T13:56:11.993Z,16.48
2022-12-19T13:58:48.731Z,23.95
2022-12-19T14:01:23.534Z,13.68
2022-12-19T14:03:54.599Z,21.20
2022-12-19T14:06:31.442Z,21.95
2022-12-19T14:11:24.946Z,13.55
2022-12-19T14:13:43.260Z,24.60
2022-12-19T14:15:12.879Z,29.98
2022-12-19T14:17:47.488Z,20.25
2022-12-19T14:22:02.760Z,30.83
2022-12-19T14:23:10.693Z,18.02
2022-12-19T14:28:21.682Z,19.00
2022-12-19T14:28:55.416Z,21.95
2022-12-19T14:31:25.034Z,24.70
2022-12-19T14:34:18.377Z,19.48
2022-12-19T14:36:49.709Z,21.70
2022-12-19T14:39:22.153Z,20.50
2022-12-19T14:43:58.007Z,18.00
2022-12-19T14:52:50.829Z,17.92
2022-12-19T14:54:01.590Z,18.40
2022-12-19T14:54:24.629Z,13.40
2022-12-19T14:57:02.280Z,23.17
2022-12-19T14:59:42.370Z,21.38
2022-12-19T15:02:10.304Z,21.73
2022-12-19T15:04:52.889Z,18.85
2022-12-19T15:07:25.863Z,22.80
2022-12-19T15:11:08.136Z,18.42
2022-12-19T15:14:53.479Z,20.17
2022-12-19T15:16:04.797Z,17.90
2022-12-19T15:18:32.321Z,18.73
2022-12-19T15:21:08.232Z,13.20
2022-12-19T15:23:35.930Z,17.60
2022-12-19T15:26:08.238Z,17.98
2022-12-19T15:28:51.067Z,13.98
2022-12-19T15:31:34.622Z,20.38
2022-12-19T15:34:34.278Z,14.63
2022-12-19T15:36:59.995Z,12.48
2022-12-19T15:39:29.849Z,20.60
2022-12-19T15:41:59.540Z,21.25
2022-12-19T15:44:41.049Z,18.05
2022-12-19T15:47:22.283Z,15.02
2022-12-19T15:49:49.809Z,17.95
2022-12-19T15:52:19.184Z,18.75
2022-12-19T15:54:49.820Z,15.63
2022-12-19T15:58:00.861Z,16.00
2022-12-19T16:00:32.594Z,17.05
2022-12-19T16:05:48.678Z,21.52
2022-12-19T16:08:19.212Z,23.70
2022-12-19T16:10:56.030Z,19.55
2022-12-19T16:13:34.273Z,20.70
2022-12-19T16:16:10.788Z,12.55
2022-12-19T16:18:40.730Z,12.77
2022-12-19T16:21:22.588Z,16.27
2022-12-19T16:23:52.504Z,20.90
2022-12-19T16:26:31.669Z,19.15
2022-12-19T16:28:59.973Z,15.88
2022-12-19T16:31:28.115Z,23.10
2022-12-19T16:33:55.727Z,16.08
2022-12-19T16:36:23.120Z,16.25
2022-12-19T16:38:50.719Z,12.43
2022-12-19T16:41:21.920Z,19.83
2022-12-19T16:43:50.061Z,19.02
2022-12-19T16:46:23.743Z,17.35
2022-12-19T16:48:51.575Z,15.10
2022-12-19T16:51:22.312Z,21.73
2022-12-19T16:53:51.865Z,17.25
2022-12-19T16:56:39.067Z,25.67
2022-12-19T16:59:15.506Z,22.65
2022-12-19T17:01:45.137Z,16.17
2022-12-19T17:04:18.700Z,19.30
2022-12-19T17:06:46.573Z,17.55
2022-12-19T17:09:15.973Z,17.40
2022-12-19T17:11:53.805Z,21.00
2022-12-19T17:14:23.629Z,15.65
2022-12-19T17:16:55.176Z,23.67
2022-12-19T17:19:26.226Z,24.40
2022-12-19T17:21:53.720Z,22.67
2022-12-19T17:24:21.307Z,20.88
2022-12-19T17:26:49.067Z,23.67
2022-12-19T17:29:16.589Z,22.25
2022-12-19T17:31:44.345Z,27.10
2022-12-19T17:34:24.775Z,16.50
2022-12-19T17:36:52.424Z,19.13
2022-12-19T17:39:25.594Z,20.48
2022-12-19T17:41:59.464Z,21.70
2022-12-19T17:44:27.192Z,17.42
2022-12-19T17:46:54.629Z,25.88
2022-12-19T17:49:28.240Z,22.27
2022-12-19T17:51:56.890Z,19.65
2022-12-19T17:54:25.947Z,20.38
2022-12-19T17:56:54.692Z,23.20
2022-12-19T17:59:22.100Z,18.65
2022-12-19T18:01:49.868Z,14.82
2022-12-19T18:04:19.850Z,24.23
2022-12-19T18:06:49.279Z,20.77
2022-12-19T18:09:25.016Z,21.92
2022-12-19T18:11:53.174Z,20.20
2022-12-19T18:14:21.448Z,18.27
2022-12-19T18:16:50.767Z,17.88
2022-12-19T18:19:21.486Z,20.40
2022-12-19T18:21:49.546Z,17.40
2022-12-19T18:24:17.883Z,14.10
2022-12-19T18:26:45.674Z,19.70
2022-12-19T18:29:13.451Z,20.08
2022-12-19T18:31:46.495Z,16.65
2022-12-19T18:34:24.048Z,22.27
2022-12-19T18:36:53.111Z,19.52
2022-12-19T18:39:29.179Z,24.40
2022-12-19T18:41:56.826Z,19.73
2022-12-19T18:44:24.206Z,23.05
2022-12-19T18:46:52.924Z,22.48
2022-12-19T18:49:21.079Z,15.98
2022-12-19T18:51:48.997Z,18.48
2022-12-19T18:54:22.311Z,17.55
2022-12-19T18:56:50.135Z,18.77
2022-12-19T18:59:17.606Z,22.05
2022-12-19T19:01:47.265Z,24.10
2022-12-19T19:04:18.083Z,18.48
2022-12-19T19:06:51.694Z,18.95
2022-12-19T19:09:21.069Z,17.45
2022-12-19T19:12:08.747Z,15.32
2022-12-19T19:14:36.224Z,17.10
2022-12-19T19:19:32.137Z,20.15
2022-12-19T19:21:59.591Z,19.08
2022-12-19T19:24:27.263Z,13.73
2022-12-19T19:26:54.937Z,19.52
2022-12-19T19:29:22.834Z,18.33
2022-12-19T19:31:52.240Z,14.95
2022-12-19T19:34:29.886Z,15.27
2022-12-19T19:37:01.636Z,18.45
2022-12-19T19:39:33.056Z,22.55
2022-12-19T19:42:01.368Z,22.00
2022-12-19T19:44:29.994Z,20.73
2022-12-19T19:46:57.605Z,15.18
2022-12-19T19:49:25.644Z,14.48
2022-12-19T19:51:57.012Z,19.92
2022-12-19T19:54:27.990Z,13.90
2022-12-19T19:56:55.486Z,18.00
2022-12-19T19:59:22.974Z,14.20
2022-12-19T20:01:54.501Z,22.02
2022-12-19T20:04:22.322Z,13.38
2022-12-19T20:06:49.765Z,16.00
2022-12-19T20:09:17.472Z,12.98
2022-12-19T20:11:45.242Z,17.10
2022-12-19T20:14:13.361Z,13.15
2022-12-19T20:16:40.952Z,19.27
2022-12-19T20:19:08.554Z,16.58
2022-12-19T20:21:36.015Z,19.13
2022-12-19T20:24:03.843Z,23.20
2022-12-19T20:26:31.359Z,18.48
2022-12-19T20:28:58.853Z,22.35
2022-12-19T20:31:26.776Z,17.45
2022-12-19T20:33:56.014Z,16.90
2022-12-19T20:36:24.005Z,23.45
2022-12-19T20:38:51.998Z,18.02
2022-12-19T20:41:19.570Z,13.43
2022-12-19T20:43:48.322Z,17.38
2022-12-19T20:46:19.134Z,19.30
2022-12-19T20:48:47.788Z,11.23
2022-12-19T20:51:16.575Z,11.70
2022-12-19T20:53:45.620Z,15.07
2022-12-19T20:56:15.542Z,14.65
2022-12-19T20:58:43.515Z,17.90
2022-12-19T21:01:15.714Z,18.30
2022-12-19T21:03:43.886Z,10.18
2022-12-19T21:06:13.767Z,13.55
2022-12-19T21:08:42.354Z,16.40
2022-12-19T21:11:10.629Z,11.25
2022-12-19T21:13:39.184Z,14.35
2022-12-19T21:16:09.983Z,13.43
2022-12-19T21:18:39.615Z,11.52
2022-12-19T21:21:09.512Z,11.45
2022-12-19T21:23:38.240Z,9.18
2022-12-19T21:26:06.270Z,7.30
2022-12-19T21:28:34.667Z,10.65
2022-12-19T21:31:17.392Z,11.20
2022-12-19T21:33:46.438Z,6.40
2022-12-19T21:36:20.443Z,9.80
2022-12-19T21:38:49.703Z,8.30
2022-12-19T21:41:19.399Z,7.90
2022-12-19T21:43:49.152Z,8.82
2022-12-19T21:46:17.491Z,9.07
2022-12-19T21:48:48.038Z,11.75
2022-12-19T21:51:17.195Z,9.82
2022-12-19T21:53:44.993Z,9.55
2022-12-19T21:56:21.749Z,8.95
2022-12-19T21:58:52.007Z,10.88
2022-12-19T22:01:20.646Z,15.98
2022-12-19T22:03:48.686Z,11.77
2022-12-19T22:06:27.063Z,16.38
2022-12-19T22:08:56.757Z,13.55
2022-12-19T22:11:25.326Z,16.42
2022-12-19T22:13:53.565Z,19.55
2022-12-19T22:16:21.208Z,14.73
2022-12-19T22:18:51.329Z,18.05
2022-12-19T22:21:19.996Z,18.98
2022-12-19T22:23:47.818Z,15.07
2022-12-19T22:26:22.957Z,20.08
2022-12-19T22:28:53.466Z,13.95
2022-12-19T22:31:33.291Z,19.05
2022-12-19T22:34:10.615Z,18.83
2022-12-19T22:36:40.305Z,14.95
2022-12-19T22:39:11.627Z,18.55
2022-12-19T22:41:40.215Z,19.90
2022-12-19T22:44:15.024Z,23.38
2022-12-19T22:46:42.780Z,19.67
2022-12-19T22:49:11.660Z,22.88
2022-12-19T22:51:39.935Z,21.48
2022-12-19T22:54:07.621Z,10.80
2022-12-19T22:56:36.053Z,21.85
2022-12-19T22:59:06.178Z,19.70
2022-12-19T23:01:40.810Z,19.77
2022-12-19T23:04:10.916Z,24.60
2022-12-19T23:06:39.145Z,15.00
2022-12-19T23:09:08.560Z,16.35
2022-12-19T23:11:38.983Z,16.58
2022-12-19T23:14:08.699Z,23.10
2022-12-19T23:16:36.207Z,18.00
2022-12-19T23:19:05.147Z,23.05
2022-12-19T23:21:32.871Z,15.63
2022-12-19T23:24:00.671Z,14.00
2022-12-19T23:26:32.091Z,17.17
2022-12-19T23:29:02.230Z,22.30
2022-12-19T23:31:30.318Z,11.98
2022-12-19T23:33:59.274Z,21.00
2022-12-19T23:37:00.935Z,15.20
2022-12-19T23:39:15.763Z,11.38
2022-12-19T23:41:43.186Z,18.90
2022-12-19T23:44:11.026Z,14.45
2022-12-19T23:46:38.667Z,17.63
2022-12-19T23:49:06.093Z,15.02
2022-12-19T23:54:00.714Z,16.92
2022-12-19T23:58:58.321Z,14.25
